sensor_id;sensor_type;location;lat;lon;timestamp;temperature;humidity
44851;DHT22;30583;48.714;9.386;2024-03-08T00:01:41;5.70;70.60
44851;DHT22;30583;48.714;9.386;2024-03-08T00:04:06;5.70;70.10
44851;DHT22;30583;48.714;9.386;2024-03-08T00:06:33;5.40;70.90
44851;DHT22;30583;48.714;9.386;2024-03-08T00:08:59;5.20;71.40
44851;DHT22;30583;48.714;9.386;2024-03-08T00:11:25;5.40;71.70
44851;DHT22;30583;48.714;9.386;2024-03-08T00:13:54;5.40;70.90
44851;DHT22;30583;48.714;9.386;2024-03-08T00:16:20;5.30;71.40
44851;DHT22;30583;48.714;9.386;2024-03-08T00:18:45;5.40;71.10
44851;DHT22;30583;48.714;9.386;2024-03-08T00:21:11;5.20;71.40
44851;DHT22;30583;48.714;9.386;2024-03-08T00:23:37;5.30;71.50
44851;DHT22;30583;48.714;9.386;2024-03-08T00:26:03;5.40;71.20
44851;DHT22;30583;48.714;9.386;2024-03-08T00:28:31;5.20;71.80
44851;DHT22;30583;48.714;9.386;2024-03-08T00:30:57;5.20;71.30
44851;DHT22;30583;48.714;9.386;2024-03-08T00:33:22;5.20;71.80
44851;DHT22;30583;48.714;9.386;2024-03-08T00:35:48;5.30;71.30
44851;DHT22;30583;48.714;9.386;2024-03-08T00:38:14;5.30;71.50
44851;DHT22;30583;48.714;9.386;2024-03-08T00:40:39;5.30;71.30
44851;DHT22;30583;48.714;9.386;2024-03-08T00:43:06;5.00;72.00
44851;DHT22;30583;48.714;9.386;2024-03-08T00:45:31;5.00;72.70
44851;DHT22;30583;48.714;9.386;2024-03-08T00:47:57;5.10;71.70
44851;DHT22;30583;48.714;9.386;2024-03-08T00:50:22;5.00;72.10
44851;DHT22;30583;48.714;9.386;2024-03-08T00:52:48;5.40;70.70
44851;DHT22;30583;48.714;9.386;2024-03-08T00:55:14;5.30;70.90
44851;DHT22;30583;48.714;9.386;2024-03-08T00:57:39;5.20;70.50
44851;DHT22;30583;48.714;9.386;2024-03-08T01:00:06;5.20;71.40
44851;DHT22;30583;48.714;9.386;2024-03-08T01:02:38;5.10;71.50
44851;DHT22;30583;48.714;9.386;2024-03-08T01:05:04;5.20;71.30
44851;DHT22;30583;48.714;9.386;2024-03-08T01:07:33;5.00;71.30
44851;DHT22;30583;48.714;9.386;2024-03-08T01:09:59;4.70;72.50
44851;DHT22;30583;48.714;9.386;2024-03-08T01:12:26;5.20;71.60
44851;DHT22;30583;48.714;9.386;2024-03-08T01:14:51;5.00;71.80
44851;DHT22;30583;48.714;9.386;2024-03-08T01:17:17;4.90;71.50
44851;DHT22;30583;48.714;9.386;2024-03-08T01:19:43;4.90;72.10
44851;DHT22;30583;48.714;9.386;2024-03-08T01:22:10;4.90;72.20
44851;DHT22;30583;48.714;9.386;2024-03-08T01:24:36;5.10;71.70
44851;DHT22;30583;48.714;9.386;2024-03-08T01:27:02;5.10;71.50
44851;DHT22;30583;48.714;9.386;2024-03-08T01:29:28;4.80;72.30
44851;DHT22;30583;48.714;9.386;2024-03-08T01:31:55;4.70;72.10
44851;DHT22;30583;48.714;9.386;2024-03-08T01:34:21;4.80;72.20
44851;DHT22;30583;48.714;9.386;2024-03-08T01:36:48;5.00;71.50
44851;DHT22;30583;48.714;9.386;2024-03-08T01:39:14;4.60;72.80
44851;DHT22;30583;48.714;9.386;2024-03-08T01:41:40;4.80;71.50
44851;DHT22;30583;48.714;9.386;2024-03-08T01:44:06;4.60;72.30
44851;DHT22;30583;48.714;9.386;2024-03-08T01:46:33;4.70;72.10
44851;DHT22;30583;48.714;9.386;2024-03-08T01:49:00;4.60;72.20
44851;DHT22;30583;48.714;9.386;2024-03-08T01:51:26;4.60;72.30
44851;DHT22;30583;48.714;9.386;2024-03-08T01:53:56;4.60;72.10
44851;DHT22;30583;48.714;9.386;2024-03-08T01:56:23;4.70;72.00
44851;DHT22;30583;48.714;9.386;2024-03-08T01:58:51;4.80;71.40
44851;DHT22;30583;48.714;9.386;2024-03-08T02:01:17;4.40;71.80
44851;DHT22;30583;48.714;9.386;2024-03-08T02:03:44;4.60;71.80
44851;DHT22;30583;48.714;9.386;2024-03-08T02:06:13;4.70;71.60
44851;DHT22;30583;48.714;9.386;2024-03-08T02:08:43;4.70;70.80
44851;DHT22;30583;48.714;9.386;2024-03-08T02:11:12;5.00;71.20
44851;DHT22;30583;48.714;9.386;2024-03-08T02:13:38;4.70;70.40
44851;DHT22;30583;48.714;9.386;2024-03-08T02:16:03;4.70;70.30
44851;DHT22;30583;48.714;9.386;2024-03-08T02:18:30;4.40;71.00
44851;DHT22;30583;48.714;9.386;2024-03-08T02:20:59;4.50;71.30
44851;DHT22;30583;48.714;9.386;2024-03-08T02:23:25;4.50;71.00
44851;DHT22;30583;48.714;9.386;2024-03-08T02:25:52;4.20;71.70
44851;DHT22;30583;48.714;9.386;2024-03-08T02:28:22;4.40;70.90
44851;DHT22;30583;48.714;9.386;2024-03-08T02:30:48;4.70;71.40
44851;DHT22;30583;48.714;9.386;2024-03-08T02:33:15;4.70;70.10
44851;DHT22;30583;48.714;9.386;2024-03-08T02:35:42;4.60;70.30
44851;DHT22;30583;48.714;9.386;2024-03-08T02:38:11;4.70;70.00
44851;DHT22;30583;48.714;9.386;2024-03-08T02:40:37;4.50;70.70
44851;DHT22;30583;48.714;9.386;2024-03-08T02:43:02;4.50;70.70
44851;DHT22;30583;48.714;9.386;2024-03-08T02:45:30;4.20;71.50
44851;DHT22;30583;48.714;9.386;2024-03-08T02:47:56;4.20;71.90
44851;DHT22;30583;48.714;9.386;2024-03-08T02:50:21;4.10;71.90
44851;DHT22;30583;48.714;9.386;2024-03-08T02:52:48;4.30;71.70
44851;DHT22;30583;48.714;9.386;2024-03-08T02:55:13;4.20;71.70
44851;DHT22;30583;48.714;9.386;2024-03-08T02:57:42;4.10;71.90
44851;DHT22;30583;48.714;9.386;2024-03-08T03:00:09;4.10;72.10
44851;DHT22;30583;48.714;9.386;2024-03-08T03:02:35;3.90;72.70
44851;DHT22;30583;48.714;9.386;2024-03-08T03:05:01;3.90;72.40
44851;DHT22;30583;48.714;9.386;2024-03-08T03:07:35;4.00;72.20
44851;DHT22;30583;48.714;9.386;2024-03-08T03:10:01;4.10;72.10
44851;DHT22;30583;48.714;9.386;2024-03-08T03:12:30;4.20;71.80
44851;DHT22;30583;48.714;9.386;2024-03-08T03:14:56;4.20;72.20
44851;DHT22;30583;48.714;9.386;2024-03-08T03:17:23;4.10;71.70
44851;DHT22;30583;48.714;9.386;2024-03-08T03:19:50;4.10;72.10
44851;DHT22;30583;48.714;9.386;2024-03-08T03:22:15;4.40;72.10
44851;DHT22;30583;48.714;9.386;2024-03-08T03:24:41;4.40;71.20
44851;DHT22;30583;48.714;9.386;2024-03-08T03:27:07;4.50;71.70
44851;DHT22;30583;48.714;9.386;2024-03-08T03:29:39;4.30;71.50
44851;DHT22;30583;48.714;9.386;2024-03-08T03:32:08;4.10;71.70
44851;DHT22;30583;48.714;9.386;2024-03-08T03:34:34;4.10;72.00
44851;DHT22;30583;48.714;9.386;2024-03-08T03:37:03;4.20;71.50
44851;DHT22;30583;48.714;9.386;2024-03-08T03:39:29;4.50;71.20
44851;DHT22;30583;48.714;9.386;2024-03-08T03:41:59;4.30;71.10
44851;DHT22;30583;48.714;9.386;2024-03-08T03:44:27;4.00;71.70
44851;DHT22;30583;48.714;9.386;2024-03-08T03:46:53;4.40;71.90
44851;DHT22;30583;48.714;9.386;2024-03-08T03:49:19;4.20;71.60
44851;DHT22;30583;48.714;9.386;2024-03-08T03:51:44;4.10;72.60
44851;DHT22;30583;48.714;9.386;2024-03-08T03:54:10;3.90;72.30
44851;DHT22;30583;48.714;9.386;2024-03-08T03:56:36;4.10;73.00
44851;DHT22;30583;48.714;9.386;2024-03-08T03:59:02;4.10;72.00
44851;DHT22;30583;48.714;9.386;2024-03-08T04:01:28;3.80;73.00
44851;DHT22;30583;48.714;9.386;2024-03-08T04:03:54;3.70;73.10
44851;DHT22;30583;48.714;9.386;2024-03-08T04:06:20;4.20;72.60
44851;DHT22;30583;48.714;9.386;2024-03-08T04:08:46;4.20;72.10
44851;DHT22;30583;48.714;9.386;2024-03-08T04:11:11;3.70;72.60
44851;DHT22;30583;48.714;9.386;2024-03-08T04:13:37;3.70;72.60
44851;DHT22;30583;48.714;9.386;2024-03-08T04:16:03;3.80;73.10
44851;DHT22;30583;48.714;9.386;2024-03-08T04:18:33;3.60;73.20
44851;DHT22;30583;48.714;9.386;2024-03-08T04:21:01;3.80;72.70
44851;DHT22;30583;48.714;9.386;2024-03-08T04:23:27;3.80;73.40
44851;DHT22;30583;48.714;9.386;2024-03-08T04:25:54;3.60;73.40
44851;DHT22;30583;48.714;9.386;2024-03-08T04:28:19;3.80;73.80
44851;DHT22;30583;48.714;9.386;2024-03-08T04:30:45;4.00;72.50
44851;DHT22;30583;48.714;9.386;2024-03-08T04:33:11;3.70;73.50
44851;DHT22;30583;48.714;9.386;2024-03-08T04:35:37;3.60;73.30
44851;DHT22;30583;48.714;9.386;2024-03-08T04:38:02;3.60;73.70
44851;DHT22;30583;48.714;9.386;2024-03-08T04:40:30;3.70;74.20
44851;DHT22;30583;48.714;9.386;2024-03-08T04:42:58;3.90;72.90
44851;DHT22;30583;48.714;9.386;2024-03-08T04:45:24;3.80;73.10
44851;DHT22;30583;48.714;9.386;2024-03-08T04:47:51;3.90;72.60
44851;DHT22;30583;48.714;9.386;2024-03-08T04:50:18;3.70;73.20
44851;DHT22;30583;48.714;9.386;2024-03-08T04:52:44;3.60;74.10
44851;DHT22;30583;48.714;9.386;2024-03-08T04:55:09;3.50;73.60
44851;DHT22;30583;48.714;9.386;2024-03-08T04:57:35;3.60;74.00
44851;DHT22;30583;48.714;9.386;2024-03-08T05:00:04;3.90;73.30
44851;DHT22;30583;48.714;9.386;2024-03-08T05:02:36;3.50;74.00
44851;DHT22;30583;48.714;9.386;2024-03-08T05:05:02;3.70;73.90
44851;DHT22;30583;48.714;9.386;2024-03-08T05:07:27;3.60;73.40
44851;DHT22;30583;48.714;9.386;2024-03-08T05:09:53;3.60;74.10
44851;DHT22;30583;48.714;9.386;2024-03-08T05:12:19;3.70;73.70
44851;DHT22;30583;48.714;9.386;2024-03-08T05:14:45;3.50;73.90
44851;DHT22;30583;48.714;9.386;2024-03-08T05:17:15;3.60;73.90
44851;DHT22;30583;48.714;9.386;2024-03-08T05:19:40;3.60;74.40
44851;DHT22;30583;48.714;9.386;2024-03-08T05:22:06;3.90;73.50
44851;DHT22;30583;48.714;9.386;2024-03-08T05:24:31;3.70;73.40
44851;DHT22;30583;48.714;9.386;2024-03-08T05:26:57;3.60;73.40
44851;DHT22;30583;48.714;9.386;2024-03-08T05:29:24;3.80;73.20
44851;DHT22;30583;48.714;9.386;2024-03-08T05:31:51;3.90;73.20
44851;DHT22;30583;48.714;9.386;2024-03-08T05:34:20;3.80;73.20
44851;DHT22;30583;48.714;9.386;2024-03-08T05:36:47;4.00;72.80
44851;DHT22;30583;48.714;9.386;2024-03-08T05:39:15;4.20;71.80
44851;DHT22;30583;48.714;9.386;2024-03-08T05:41:41;4.00;71.90
44851;DHT22;30583;48.714;9.386;2024-03-08T05:44:10;4.00;72.50
44851;DHT22;30583;48.714;9.386;2024-03-08T05:46:36;3.90;72.70
44851;DHT22;30583;48.714;9.386;2024-03-08T05:49:03;3.80;73.10
44851;DHT22;30583;48.714;9.386;2024-03-08T05:51:35;4.20;72.30
44851;DHT22;30583;48.714;9.386;2024-03-08T05:54:05;3.90;72.30
44851;DHT22;30583;48.714;9.386;2024-03-08T05:56:31;3.90;72.90
44851;DHT22;30583;48.714;9.386;2024-03-08T05:58:57;4.00;72.00
44851;DHT22;30583;48.714;9.386;2024-03-08T06:01:26;3.90;72.50
44851;DHT22;30583;48.714;9.386;2024-03-08T06:03:55;3.90;72.30
44851;DHT22;30583;48.714;9.386;2024-03-08T06:06:25;3.80;73.10
44851;DHT22;30583;48.714;9.386;2024-03-08T06:08:51;4.00;72.90
44851;DHT22;30583;48.714;9.386;2024-03-08T06:11:18;4.10;72.40
44851;DHT22;30583;48.714;9.386;2024-03-08T06:13:44;4.10;71.90
44851;DHT22;30583;48.714;9.386;2024-03-08T06:16:10;4.10;72.50
44851;DHT22;30583;48.714;9.386;2024-03-08T06:18:37;4.00;72.80
44851;DHT22;30583;48.714;9.386;2024-03-08T06:21:06;3.70;73.20
44851;DHT22;30583;48.714;9.386;2024-03-08T06:23:38;4.20;72.40
44851;DHT22;30583;48.714;9.386;2024-03-08T06:26:07;4.00;72.00
44851;DHT22;30583;48.714;9.386;2024-03-08T06:28:33;3.70;73.10
44851;DHT22;30583;48.714;9.386;2024-03-08T06:31:00;3.70;73.80
44851;DHT22;30583;48.714;9.386;2024-03-08T06:33:26;3.80;73.30
44851;DHT22;30583;48.714;9.386;2024-03-08T06:35:52;4.20;73.30
44851;DHT22;30583;48.714;9.386;2024-03-08T06:38:18;4.00;72.70
44851;DHT22;30583;48.714;9.386;2024-03-08T06:40:44;4.10;72.70
44851;DHT22;30583;48.714;9.386;2024-03-08T06:43:13;4.10;73.30
44851;DHT22;30583;48.714;9.386;2024-03-08T06:45:42;4.50;71.00
44851;DHT22;30583;48.714;9.386;2024-03-08T06:48:07;4.00;72.80
44851;DHT22;30583;48.714;9.386;2024-03-08T06:50:35;3.90;73.40
44851;DHT22;30583;48.714;9.386;2024-03-08T06:53:01;3.90;73.50
44851;DHT22;30583;48.714;9.386;2024-03-08T06:55:28;3.90;74.00
44851;DHT22;30583;48.714;9.386;2024-03-08T06:57:54;4.40;73.00
44851;DHT22;30583;48.714;9.386;2024-03-08T07:00:19;4.10;73.60
44851;DHT22;30583;48.714;9.386;2024-03-08T07:02:48;12.20;78.30
44851;DHT22;30583;48.714;9.386;2024-03-08T07:05:15;14.90;61.70
44851;DHT22;30583;48.714;9.386;2024-03-08T07:07:41;13.90;60.10
44851;DHT22;30583;48.714;9.386;2024-03-08T07:10:08;14.60;54.10
44851;DHT22;30583;48.714;9.386;2024-03-08T07:12:39;13.10;50.90
44851;DHT22;30583;48.714;9.386;2024-03-08T07:15:05;8.10;59.10
44851;DHT22;30583;48.714;9.386;2024-03-08T07:17:31;6.30;63.70
44851;DHT22;30583;48.714;9.386;2024-03-08T07:19:59;5.70;67.00
44851;DHT22;30583;48.714;9.386;2024-03-08T07:22:32;5.10;68.70
44851;DHT22;30583;48.714;9.386;2024-03-08T07:24:58;5.70;67.60
44851;DHT22;30583;48.714;9.386;2024-03-08T07:27:45;5.30;68.30
44851;DHT22;30583;48.714;9.386;2024-03-08T07:30:11;4.90;69.80
44851;DHT22;30583;48.714;9.386;2024-03-08T07:32:37;4.60;71.20
44851;DHT22;30583;48.714;9.386;2024-03-08T07:35:03;4.70;71.90
44851;DHT22;30583;48.714;9.386;2024-03-08T07:37:29;4.60;71.50
44851;DHT22;30583;48.714;9.386;2024-03-08T07:39:54;4.50;72.20
44851;DHT22;30583;48.714;9.386;2024-03-08T07:42:20;4.70;71.90
44851;DHT22;30583;48.714;9.386;2024-03-08T07:44:48;4.70;71.70
44851;DHT22;30583;48.714;9.386;2024-03-08T07:47:15;4.50;71.60
44851;DHT22;30583;48.714;9.386;2024-03-08T07:49:42;4.50;72.30
44851;DHT22;30583;48.714;9.386;2024-03-08T07:52:09;4.60;72.50
44851;DHT22;30583;48.714;9.386;2024-03-08T07:54:39;4.40;72.80
44851;DHT22;30583;48.714;9.386;2024-03-08T07:57:05;4.70;72.70
44851;DHT22;30583;48.714;9.386;2024-03-08T07:59:32;5.00;71.40
44851;DHT22;30583;48.714;9.386;2024-03-08T08:01:58;4.40;72.60
44851;DHT22;30583;48.714;9.386;2024-03-08T08:04:24;4.60;72.50
44851;DHT22;30583;48.714;9.386;2024-03-08T08:06:50;4.70;72.20
44851;DHT22;30583;48.714;9.386;2024-03-08T08:09:16;4.70;72.10
44851;DHT22;30583;48.714;9.386;2024-03-08T08:11:56;4.70;72.50
44851;DHT22;30583;48.714;9.386;2024-03-08T08:14:21;4.40;72.50
44851;DHT22;30583;48.714;9.386;2024-03-08T08:16:47;4.60;72.50
44851;DHT22;30583;48.714;9.386;2024-03-08T08:19:14;4.30;73.00
44851;DHT22;30583;48.714;9.386;2024-03-08T08:21:41;4.40;72.90
44851;DHT22;30583;48.714;9.386;2024-03-08T08:24:06;4.60;73.50
44851;DHT22;30583;48.714;9.386;2024-03-08T08:26:32;5.00;71.80
44851;DHT22;30583;48.714;9.386;2024-03-08T08:28:59;4.80;71.80
44851;DHT22;30583;48.714;9.386;2024-03-08T08:31:25;4.90;71.30
44851;DHT22;30583;48.714;9.386;2024-03-08T08:33:51;4.80;71.60
44851;DHT22;30583;48.714;9.386;2024-03-08T08:36:23;4.80;72.00
44851;DHT22;30583;48.714;9.386;2024-03-08T08:38:49;5.10;71.00
44851;DHT22;30583;48.714;9.386;2024-03-08T08:41:15;5.10;71.60
44851;DHT22;30583;48.714;9.386;2024-03-08T08:43:42;5.90;69.50
44851;DHT22;30583;48.714;9.386;2024-03-08T08:46:10;5.10;70.50
44851;DHT22;30583;48.714;9.386;2024-03-08T08:48:39;5.40;70.70
44851;DHT22;30583;48.714;9.386;2024-03-08T08:51:11;5.40;70.20
44851;DHT22;30583;48.714;9.386;2024-03-08T08:53:41;5.50;70.40
44851;DHT22;30583;48.714;9.386;2024-03-08T08:56:08;5.60;69.90
44851;DHT22;30583;48.714;9.386;2024-03-08T08:58:34;5.60;68.50
44851;DHT22;30583;48.714;9.386;2024-03-08T09:01:00;5.40;69.50
44851;DHT22;30583;48.714;9.386;2024-03-08T09:03:27;5.00;70.80
44851;DHT22;30583;48.714;9.386;2024-03-08T09:05:53;4.80;71.60
44851;DHT22;30583;48.714;9.386;2024-03-08T09:08:19;4.90;72.00
44851;DHT22;30583;48.714;9.386;2024-03-08T09:10:45;4.80;72.00
44851;DHT22;30583;48.714;9.386;2024-03-08T09:13:12;5.30;71.20
44851;DHT22;30583;48.714;9.386;2024-03-08T09:15:38;5.30;70.50
44851;DHT22;30583;48.714;9.386;2024-03-08T09:18:06;5.20;71.00
44851;DHT22;30583;48.714;9.386;2024-03-08T09:20:31;5.40;70.50
44851;DHT22;30583;48.714;9.386;2024-03-08T09:22:57;5.20;71.10
44851;DHT22;30583;48.714;9.386;2024-03-08T09:25:23;5.40;71.60
44851;DHT22;30583;48.714;9.386;2024-03-08T09:27:49;6.10;69.30
44851;DHT22;30583;48.714;9.386;2024-03-08T09:30:15;5.40;70.00
44851;DHT22;30583;48.714;9.386;2024-03-08T09:32:41;5.60;69.80
44851;DHT22;30583;48.714;9.386;2024-03-08T09:35:07;5.50;69.50
44851;DHT22;30583;48.714;9.386;2024-03-08T09:37:33;5.80;69.70
44851;DHT22;30583;48.714;9.386;2024-03-08T09:39:59;5.90;68.80
44851;DHT22;30583;48.714;9.386;2024-03-08T09:42:26;6.10;68.70
44851;DHT22;30583;48.714;9.386;2024-03-08T09:44:51;5.90;67.80
44851;DHT22;30583;48.714;9.386;2024-03-08T09:47:18;5.70;69.00
44851;DHT22;30583;48.714;9.386;2024-03-08T09:49:43;5.80;69.00
44851;DHT22;30583;48.714;9.386;2024-03-08T09:52:09;5.70;68.90
44851;DHT22;30583;48.714;9.386;2024-03-08T09:54:38;6.10;68.50
44851;DHT22;30583;48.714;9.386;2024-03-08T09:57:05;5.80;68.60
44851;DHT22;30583;48.714;9.386;2024-03-08T09:59:33;5.50;69.50
44851;DHT22;30583;48.714;9.386;2024-03-08T10:01:59;5.50;70.20
44851;DHT22;30583;48.714;9.386;2024-03-08T10:04:25;5.60;69.30
44851;DHT22;30583;48.714;9.386;2024-03-08T10:06:53;6.00;69.30
44851;DHT22;30583;48.714;9.386;2024-03-08T10:09:19;6.20;68.50
44851;DHT22;30583;48.714;9.386;2024-03-08T10:11:46;6.60;66.90
44851;DHT22;30583;48.714;9.386;2024-03-08T10:14:12;6.30;68.40
44851;DHT22;30583;48.714;9.386;2024-03-08T10:16:38;6.30;66.80
44851;DHT22;30583;48.714;9.386;2024-03-08T10:19:05;6.40;67.10
44851;DHT22;30583;48.714;9.386;2024-03-08T10:21:32;6.40;65.70
44851;DHT22;30583;48.714;9.386;2024-03-08T10:23:58;5.90;68.50
44851;DHT22;30583;48.714;9.386;2024-03-08T10:26:24;6.70;66.10
44851;DHT22;30583;48.714;9.386;2024-03-08T10:28:51;6.60;66.20
44851;DHT22;30583;48.714;9.386;2024-03-08T10:31:18;6.60;66.00
44851;DHT22;30583;48.714;9.386;2024-03-08T10:33:45;6.80;66.60
44851;DHT22;30583;48.714;9.386;2024-03-08T10:36:13;6.80;65.40
44851;DHT22;30583;48.714;9.386;2024-03-08T10:38:40;6.80;65.10
44851;DHT22;30583;48.714;9.386;2024-03-08T10:41:07;6.50;66.40
44851;DHT22;30583;48.714;9.386;2024-03-08T10:44:10;7.00;65.90
44851;DHT22;30583;48.714;9.386;2024-03-08T10:46:51;6.90;66.00
44851;DHT22;30583;48.714;9.386;2024-03-08T10:49:31;6.90;64.10
44851;DHT22;30583;48.714;9.386;2024-03-08T10:52:03;6.20;67.10
44851;DHT22;30583;48.714;9.386;2024-03-08T10:54:30;5.90;67.20
44851;DHT22;30583;48.714;9.386;2024-03-08T10:56:57;6.00;68.00
44851;DHT22;30583;48.714;9.386;2024-03-08T10:59:23;6.40;66.70
44851;DHT22;30583;48.714;9.386;2024-03-08T11:01:50;6.80;66.20
44851;DHT22;30583;48.714;9.386;2024-03-08T11:04:16;6.50;65.50
44851;DHT22;30583;48.714;9.386;2024-03-08T11:06:46;6.50;66.50
44851;DHT22;30583;48.714;9.386;2024-03-08T11:09:28;6.50;66.60
44851;DHT22;30583;48.714;9.386;2024-03-08T11:12:20;6.70;66.20
44851;DHT22;30583;48.714;9.386;2024-03-08T11:14:49;6.70;66.00
44851;DHT22;30583;48.714;9.386;2024-03-08T11:20:12;7.80;64.70
44851;DHT22;30583;48.714;9.386;2024-03-08T11:22:55;8.20;61.60
44851;DHT22;30583;48.714;9.386;2024-03-08T11:25:40;7.40;63.60
44851;DHT22;30583;48.714;9.386;2024-03-08T11:28:19;7.10;64.90
44851;DHT22;30583;48.714;9.386;2024-03-08T11:30:46;7.40;63.90
44851;DHT22;30583;48.714;9.386;2024-03-08T11:33:16;7.30;63.90
44851;DHT22;30583;48.714;9.386;2024-03-08T11:35:43;7.30;65.30
44851;DHT22;30583;48.714;9.386;2024-03-08T11:38:11;8.20;62.80
44851;DHT22;30583;48.714;9.386;2024-03-08T11:40:39;8.10;62.10
44851;DHT22;30583;48.714;9.386;2024-03-08T11:43:05;8.00;62.10
44851;DHT22;30583;48.714;9.386;2024-03-08T11:45:34;8.70;63.40
44851;DHT22;30583;48.714;9.386;2024-03-08T11:48:04;8.50;61.20
44851;DHT22;30583;48.714;9.386;2024-03-08T11:50:30;8.40;62.30
44851;DHT22;30583;48.714;9.386;2024-03-08T11:53:02;9.00;63.10
44851;DHT22;30583;48.714;9.386;2024-03-08T11:55:28;9.10;59.40
44851;DHT22;30583;48.714;9.386;2024-03-08T11:58:04;9.70;60.90
44851;DHT22;30583;48.714;9.386;2024-03-08T12:00:31;9.30;59.00
44851;DHT22;30583;48.714;9.386;2024-03-08T12:03:07;9.60;59.80
44851;DHT22;30583;48.714;9.386;2024-03-08T12:05:35;10.70;58.30
44851;DHT22;30583;48.714;9.386;2024-03-08T12:08:02;10.50;56.40
44851;DHT22;30583;48.714;9.386;2024-03-08T12:10:28;10.50;56.90
44851;DHT22;30583;48.714;9.386;2024-03-08T12:12:58;10.20;58.40
44851;DHT22;30583;48.714;9.386;2024-03-08T12:15:27;11.50;59.90
44851;DHT22;30583;48.714;9.386;2024-03-08T12:17:54;12.30;57.30
44851;DHT22;30583;48.714;9.386;2024-03-08T12:20:28;12.20;53.50
44851;DHT22;30583;48.714;9.386;2024-03-08T12:22:58;11.70;54.20
44851;DHT22;30583;48.714;9.386;2024-03-08T12:25:33;12.20;52.20
44851;DHT22;30583;48.714;9.386;2024-03-08T12:28:08;11.20;53.20
44851;DHT22;30583;48.714;9.386;2024-03-08T12:30:51;10.50;54.90
44851;DHT22;30583;48.714;9.386;2024-03-08T12:33:22;11.20;55.60
44851;DHT22;30583;48.714;9.386;2024-03-08T12:35:55;11.60;52.60
44851;DHT22;30583;48.714;9.386;2024-03-08T12:38:21;10.80;54.10
44851;DHT22;30583;48.714;9.386;2024-03-08T12:40:50;10.50;56.30
44851;DHT22;30583;48.714;9.386;2024-03-08T12:43:20;11.30;54.30
44851;DHT22;30583;48.714;9.386;2024-03-08T12:45:46;9.80;56.40
44851;DHT22;30583;48.714;9.386;2024-03-08T12:48:15;10.20;57.00
44851;DHT22;30583;48.714;9.386;2024-03-08T12:50:41;10.40;55.70
44851;DHT22;30583;48.714;9.386;2024-03-08T12:53:10;11.20;54.00
44851;DHT22;30583;48.714;9.386;2024-03-08T12:55:36;11.00;54.60
44851;DHT22;30583;48.714;9.386;2024-03-08T12:58:02;11.80;54.40
44851;DHT22;30583;48.714;9.386;2024-03-08T13:00:27;10.80;53.00
44851;DHT22;30583;48.714;9.386;2024-03-08T13:02:53;10.90;53.70
44851;DHT22;30583;48.714;9.386;2024-03-08T13:05:19;10.50;54.20
44851;DHT22;30583;48.714;9.386;2024-03-08T13:07:45;11.00;55.00
44851;DHT22;30583;48.714;9.386;2024-03-08T13:10:15;12.20;50.80
44851;DHT22;30583;48.714;9.386;2024-03-08T13:12:44;11.90;52.20
44851;DHT22;30583;48.714;9.386;2024-03-08T13:15:10;11.70;52.20
44851;DHT22;30583;48.714;9.386;2024-03-08T13:17:40;12.40;49.80
44851;DHT22;30583;48.714;9.386;2024-03-08T13:20:07;12.80;51.40
44851;DHT22;30583;48.714;9.386;2024-03-08T13:22:33;12.60;47.90
44851;DHT22;30583;48.714;9.386;2024-03-08T13:24:59;11.50;52.50
44851;DHT22;30583;48.714;9.386;2024-03-08T13:27:27;10.90;53.10
44851;DHT22;30583;48.714;9.386;2024-03-08T13:29:53;11.30;53.30
44851;DHT22;30583;48.714;9.386;2024-03-08T13:32:18;11.80;51.90
44851;DHT22;30583;48.714;9.386;2024-03-08T13:34:46;12.90;50.20
44851;DHT22;30583;48.714;9.386;2024-03-08T13:37:19;12.00;50.40
44851;DHT22;30583;48.714;9.386;2024-03-08T13:39:45;11.20;53.10
44851;DHT22;30583;48.714;9.386;2024-03-08T13:42:13;11.70;53.30
44851;DHT22;30583;48.714;9.386;2024-03-08T13:44:48;13.80;49.20
44851;DHT22;30583;48.714;9.386;2024-03-08T13:47:15;12.40;50.50
44851;DHT22;30583;48.714;9.386;2024-03-08T13:49:40;11.40;52.10
44851;DHT22;30583;48.714;9.386;2024-03-08T13:52:06;11.70;51.70
44851;DHT22;30583;48.714;9.386;2024-03-08T13:54:34;12.00;51.80
44851;DHT22;30583;48.714;9.386;2024-03-08T13:57:00;12.20;51.40
44851;DHT22;30583;48.714;9.386;2024-03-08T13:59:31;12.20;52.30
44851;DHT22;30583;48.714;9.386;2024-03-08T14:01:59;12.60;50.10
44851;DHT22;30583;48.714;9.386;2024-03-08T14:04:26;12.00;51.40
44851;DHT22;30583;48.714;9.386;2024-03-08T14:06:52;12.20;51.20
44851;DHT22;30583;48.714;9.386;2024-03-08T14:09:25;12.10;51.50
44851;DHT22;30583;48.714;9.386;2024-03-08T14:11:55;12.30;52.40
44851;DHT22;30583;48.714;9.386;2024-03-08T14:14:23;12.10;51.50
44851;DHT22;30583;48.714;9.386;2024-03-08T14:16:52;12.50;51.10
44851;DHT22;30583;48.714;9.386;2024-03-08T14:19:19;12.80;50.90
44851;DHT22;30583;48.714;9.386;2024-03-08T14:21:45;13.00;49.40
44851;DHT22;30583;48.714;9.386;2024-03-08T14:24:12;12.40;51.30
44851;DHT22;30583;48.714;9.386;2024-03-08T14:26:37;12.70;51.30
44851;DHT22;30583;48.714;9.386;2024-03-08T14:29:04;13.20;49.20
44851;DHT22;30583;48.714;9.386;2024-03-08T14:31:31;13.10;49.80
44851;DHT22;30583;48.714;9.386;2024-03-08T14:33:56;13.00;50.80
44851;DHT22;30583;48.714;9.386;2024-03-08T14:36:24;13.20;50.20
44851;DHT22;30583;48.714;9.386;2024-03-08T14:38:51;13.30;50.50
44851;DHT22;30583;48.714;9.386;2024-03-08T14:41:16;14.00;48.70
44851;DHT22;30583;48.714;9.386;2024-03-08T14:43:42;13.70;48.80
44851;DHT22;30583;48.714;9.386;2024-03-08T14:46:11;14.10;48.60
44851;DHT22;30583;48.714;9.386;2024-03-08T14:48:51;13.50;48.70
44851;DHT22;30583;48.714;9.386;2024-03-08T14:51:18;12.90;49.20
44851;DHT22;30583;48.714;9.386;2024-03-08T14:53:47;13.10;49.80
44851;DHT22;30583;48.714;9.386;2024-03-08T14:56:12;13.20;49.80
44851;DHT22;30583;48.714;9.386;2024-03-08T14:58:45;12.60;50.10
44851;DHT22;30583;48.714;9.386;2024-03-08T15:01:12;12.90;49.80
44851;DHT22;30583;48.714;9.386;2024-03-08T15:03:41;12.30;51.00
44851;DHT22;30583;48.714;9.386;2024-03-08T15:06:08;13.00;49.90
44851;DHT22;30583;48.714;9.386;2024-03-08T15:08:38;13.30;49.40
44851;DHT22;30583;48.714;9.386;2024-03-08T15:11:05;12.80;50.90
44851;DHT22;30583;48.714;9.386;2024-03-08T15:13:32;13.10;50.10
44851;DHT22;30583;48.714;9.386;2024-03-08T15:16:08;13.30;49.00
44851;DHT22;30583;48.714;9.386;2024-03-08T15:18:34;12.80;51.20
44851;DHT22;30583;48.714;9.386;2024-03-08T15:21:04;14.00;52.40
44851;DHT22;30583;48.714;9.386;2024-03-08T15:23:35;14.70;49.60
44851;DHT22;30583;48.714;9.386;2024-03-08T15:26:02;15.20;51.50
44851;DHT22;30583;48.714;9.386;2024-03-08T15:28:29;14.70;46.60
44851;DHT22;30583;48.714;9.386;2024-03-08T15:31:06;13.70;50.90
44851;DHT22;30583;48.714;9.386;2024-03-08T15:33:36;14.40;48.30
44851;DHT22;30583;48.714;9.386;2024-03-08T15:36:17;14.20;47.20
44851;DHT22;30583;48.714;9.386;2024-03-08T15:38:46;13.20;49.70
44851;DHT22;30583;48.714;9.386;2024-03-08T15:41:12;13.40;50.10
44851;DHT22;30583;48.714;9.386;2024-03-08T15:43:39;13.50;49.00
44851;DHT22;30583;48.714;9.386;2024-03-08T15:46:09;14.70;49.50
44851;DHT22;30583;48.714;9.386;2024-03-08T15:48:36;13.80;49.50